createdAt,value
2023-02-16T00:00:58.862Z,81.03
2023-02-16T00:02:01.262Z,56.58
2023-02-16T00:03:03.672Z,81.63
2023-02-16T00:04:17.592Z,88.65
2023-02-16T00:05:33.179Z,76.47
2023-02-16T00:06:35.911Z,53.03
2023-02-16T00:07:38.282Z,55.58
2023-02-16T00:08:40.884Z,78.93
2023-02-16T00:09:43.077Z,48.47
2023-02-16T00:11:04.988Z,69.57
2023-02-16T00:12:36.593Z,61.87
2023-02-16T00:13:45.130Z,59.67
2023-02-16T00:14:47.378Z,64.40
2023-02-16T00:15:49.677Z,52.75
2023-02-16T00:17:01.404Z,55.47
2023-02-16T00:18:12.402Z,40.53
2023-02-16T00:19:19.215Z,50.42
2023-02-16T00:20:21.535Z,46.20
2023-02-16T00:21:24.021Z,51.05
2023-02-16T00:22:26.317Z,47.60
2023-02-16T00:23:28.480Z,38.10
2023-02-16T00:24:31.145Z,43.97
2023-02-16T00:25:33.618Z,44.45
2023-02-16T00:26:36.021Z,42.35
2023-02-16T00:27:38.496Z,37.50
2023-02-16T00:28:40.904Z,34.92
2023-02-16T00:29:45.442Z,42.78
2023-02-16T00:30:50.142Z,43.03
2023-02-16T00:31:53.826Z,39.83
2023-02-16T00:32:56.140Z,43.20
2023-02-16T00:33:59.384Z,38.17
2023-02-16T00:35:01.837Z,42.38
2023-02-16T00:36:04.377Z,40.45
2023-02-16T00:37:12.500Z,38.40
2023-02-16T00:38:14.945Z,34.70
2023-02-16T00:39:17.157Z,36.13
2023-02-16T00:40:19.475Z,33.88
2023-02-16T00:41:43.030Z,32.67
2023-02-16T00:42:47.438Z,33.92
2023-02-16T00:43:49.749Z,31.05
2023-02-16T00:44:53.883Z,30.00
2023-02-16T00:45:56.593Z,32.90
2023-02-16T00:47:23.739Z,27.90
2023-02-16T00:48:25.971Z,27.08
2023-02-16T00:49:29.114Z,26.95
2023-02-16T00:50:34.397Z,28.20
2023-02-16T00:51:36.697Z,32.03
2023-02-16T00:52:42.744Z,30.20
2023-02-16T00:53:45.141Z,30.33
2023-02-16T00:54:47.379Z,29.10
2023-02-16T00:55:49.671Z,32.05
2023-02-16T00:56:52.202Z,30.70
2023-02-16T00:58:26.885Z,26.58
2023-02-16T00:59:29.396Z,26.73
2023-02-16T01:00:39.579Z,28.70
2023-02-16T01:01:41.896Z,28.85
2023-02-16T01:02:44.955Z,28.50
2023-02-16T01:03:47.168Z,26.73
2023-02-16T01:04:49.370Z,31.13
2023-02-16T01:06:11.842Z,30.35
2023-02-16T01:07:33.599Z,30.33
2023-02-16T01:08:54.611Z,25.85
2023-02-16T01:10:15.920Z,28.08
2023-02-16T01:12:22.498Z,26.80
2023-02-16T01:13:27.695Z,26.67
2023-02-16T01:14:33.548Z,29.42
2023-02-16T01:15:36.473Z,29.75
2023-02-16T01:16:41.633Z,33.95
2023-02-16T01:17:43.942Z,27.65
2023-02-16T01:18:46.546Z,26.35
2023-02-16T01:19:48.800Z,25.63
2023-02-16T01:20:51.691Z,28.50
2023-02-16T01:21:54.043Z,26.25
2023-02-16T01:22:56.566Z,25.38
2023-02-16T01:23:58.798Z,24.20
2023-02-16T01:25:00.992Z,24.80
2023-02-16T01:26:03.984Z,23.75
2023-02-16T01:27:06.295Z,23.95
2023-02-16T01:28:21.079Z,24.77
2023-02-16T01:29:23.374Z,23.92
2023-02-16T01:30:26.334Z,22.83
2023-02-16T01:31:28.702Z,23.60
2023-02-16T01:32:31.066Z,25.77
2023-02-16T01:33:34.328Z,25.52
2023-02-16T01:34:36.692Z,25.73
2023-02-16T01:35:39.327Z,26.02
2023-02-16T01:36:47.726Z,24.73
2023-02-16T01:37:50.920Z,25.52
2023-02-16T01:38:53.955Z,29.60
2023-02-16T01:39:56.426Z,27.42
2023-02-16T01:41:22.937Z,26.60
2023-02-16T01:42:54.909Z,28.80
2023-02-16T01:44:04.427Z,28.05
2023-02-16T01:45:15.632Z,26.50
2023-02-16T01:46:38.610Z,30.25
2023-02-16T01:47:56.584Z,26.77
2023-02-16T01:48:59.855Z,24.70
2023-02-16T01:50:26.796Z,28.45
2023-02-16T01:51:37.148Z,27.63
2023-02-16T01:52:43.642Z,26.80
2023-02-16T01:53:52.354Z,27.30
2023-02-16T01:55:16.541Z,26.45
2023-02-16T01:56:32.438Z,26.02
2023-02-16T01:57:52.344Z,25.48
2023-02-16T01:59:00.160Z,27.95
2023-02-16T02:02:26.282Z,25.20
2023-02-16T02:03:52.504Z,25.55
2023-02-16T02:05:18.075Z,25.23
2023-02-16T02:06:25.343Z,25.17
2023-02-16T02:07:44.561Z,24.50
2023-02-16T02:09:10.816Z,24.83
2023-02-16T02:10:21.398Z,25.00
2023-02-16T02:11:33.819Z,24.15
2023-02-16T02:12:49.167Z,25.73
2023-02-16T02:14:11.486Z,25.60
2023-02-16T02:15:17.069Z,26.13
2023-02-16T02:16:22.513Z,26.15
2023-02-16T02:17:25.329Z,25.13
2023-02-16T02:18:27.511Z,28.55
2023-02-16T02:19:38.289Z,26.77
2023-02-16T02:21:17.364Z,26.35
2023-02-16T02:22:59.894Z,25.23
2023-02-16T02:24:17.298Z,26.90
2023-02-16T02:25:48.693Z,28.42
2023-02-16T02:27:18.138Z,27.98
2023-02-16T02:28:47.465Z,27.92
2023-02-16T02:30:19.420Z,26.75
2023-02-16T02:31:37.591Z,24.03
2023-02-16T02:32:39.764Z,27.55
2023-02-16T02:33:42.204Z,26.30
2023-02-16T02:35:19.457Z,26.25
2023-02-16T02:36:27.216Z,26.20
2023-02-16T02:37:49.772Z,31.60
2023-02-16T02:39:04.020Z,27.02
2023-02-16T02:40:24.555Z,26.33
2023-02-16T02:42:00.305Z,26.92
2023-02-16T02:43:21.005Z,27.63
2023-02-16T02:44:26.993Z,26.88
2023-02-16T02:45:36.324Z,26.63
2023-02-16T02:46:39.083Z,26.63
2023-02-16T02:47:45.066Z,27.35
2023-02-16T02:48:47.410Z,28.77
2023-02-16T02:49:51.801Z,27.20
2023-02-16T02:51:17.317Z,27.20
2023-02-16T02:52:22.305Z,29.10
2023-02-16T02:53:25.281Z,28.52
2023-02-16T02:54:57.651Z,27.40
2023-02-16T02:56:21.614Z,28.85
2023-02-16T02:57:59.916Z,30.67
2023-02-16T02:59:27.855Z,28.98
2023-02-16T03:00:53.265Z,30.23
2023-02-16T03:01:59.620Z,30.25
2023-02-16T03:03:10.790Z,28.42
2023-02-16T03:04:20.760Z,27.77
2023-02-16T03:05:25.017Z,28.65
2023-02-16T03:06:32.414Z,29.02
2023-02-16T03:07:49.287Z,28.70
2023-02-16T03:08:57.678Z,27.73
2023-02-16T03:10:19.874Z,27.67
2023-02-16T03:11:45.652Z,29.00
2023-02-16T03:12:49.299Z,27.95
2023-02-16T03:13:57.846Z,30.30
2023-02-16T03:15:01.631Z,28.60
2023-02-16T03:16:10.307Z,30.98
2023-02-16T03:17:41.213Z,28.90
2023-02-16T03:19:04.791Z,24.67
2023-02-16T03:20:31.489Z,26.85
2023-02-16T03:21:54.048Z,25.83
2023-02-16T03:23:16.588Z,25.52
2023-02-16T03:24:50.296Z,26.42
2023-02-16T03:26:11.959Z,25.90
2023-02-16T03:27:37.546Z,25.20
2023-02-16T03:29:08.312Z,29.02
2023-02-16T03:30:12.358Z,26.60
2023-02-16T03:31:20.613Z,27.60
2023-02-16T03:32:23.108Z,27.88
2023-02-16T03:33:26.656Z,25.48
2023-02-16T03:34:30.784Z,25.80
2023-02-16T03:35:32.995Z,24.52
2023-02-16T03:36:39.043Z,25.02
2023-02-16T03:37:43.405Z,24.42
2023-02-16T03:38:45.641Z,23.83
2023-02-16T03:40:07.475Z,25.77
2023-02-16T03:41:09.750Z,25.60
2023-02-16T03:42:12.192Z,26.27
2023-02-16T03:43:14.371Z,27.13
2023-02-16T03:44:16.842Z,27.27
2023-02-16T03:45:20.533Z,28.10
2023-02-16T03:46:22.704Z,26.55
2023-02-16T03:47:25.054Z,24.83
2023-02-16T03:48:27.310Z,27.13
2023-02-16T03:49:29.541Z,28.40
2023-02-16T03:50:32.132Z,26.65
2023-02-16T03:51:34.301Z,26.83
2023-02-16T03:52:36.550Z,26.13
2023-02-16T03:53:38.779Z,27.90
2023-02-16T03:54:41.051Z,27.40
2023-02-16T03:55:46.133Z,27.92
2023-02-16T03:56:48.407Z,29.48
2023-02-16T03:57:50.704Z,29.17
2023-02-16T03:58:53.120Z,27.83
2023-02-16T03:59:56.327Z,26.88
2023-02-16T04:00:59.927Z,29.13
2023-02-16T04:02:02.235Z,27.30
2023-02-16T04:03:06.112Z,28.08
2023-02-16T04:04:08.347Z,27.88
2023-02-16T04:05:10.636Z,28.20
2023-02-16T04:06:12.950Z,29.90
2023-02-16T04:07:15.163Z,27.45
2023-02-16T04:08:17.523Z,25.45
2023-02-16T04:09:19.663Z,28.20
2023-02-16T04:10:22.632Z,26.63
2023-02-16T04:11:43.146Z,26.52
2023-02-16T04:12:45.378Z,27.67
2023-02-16T04:13:47.681Z,29.38
2023-02-16T04:14:49.950Z,26.85
2023-02-16T04:15:52.499Z,30.27
2023-02-16T04:16:56.016Z,26.75
2023-02-16T04:17:58.520Z,27.15
2023-02-16T04:19:00.756Z,27.95
2023-02-16T04:20:03.524Z,28.33
2023-02-16T04:21:05.992Z,27.60
2023-02-16T04:22:08.296Z,27.90
2023-02-16T04:23:10.514Z,29.02
2023-02-16T04:24:12.743Z,27.77
2023-02-16T04:25:16.282Z,29.65
2023-02-16T04:26:18.523Z,28.83
2023-02-16T04:27:20.748Z,27.02
2023-02-16T04:28:22.961Z,28.25
2023-02-16T04:29:25.299Z,26.63
2023-02-16T04:30:30.129Z,24.08
2023-02-16T04:31:32.461Z,24.70
2023-02-16T04:32:34.879Z,24.67
2023-02-16T04:33:37.043Z,25.13
2023-02-16T04:34:39.222Z,25.20
2023-02-16T04:35:41.394Z,25.83
2023-02-16T04:36:43.619Z,24.30
2023-02-16T04:37:45.987Z,25.08
2023-02-16T04:38:48.202Z,25.55
2023-02-16T04:39:50.386Z,27.42
2023-02-16T04:40:52.594Z,28.33
2023-02-16T04:41:54.894Z,27.00
2023-02-16T04:42:57.125Z,26.80
2023-02-16T04:43:59.336Z,28.17
2023-02-16T04:45:01.556Z,28.23
2023-02-16T04:46:03.864Z,28.67
2023-02-16T04:47:06.204Z,28.23
2023-02-16T04:48:08.520Z,28.40
2023-02-16T04:49:10.707Z,29.23
2023-02-16T04:50:13.247Z,31.08
2023-02-16T04:51:15.505Z,28.00
2023-02-16T04:52:17.898Z,26.45
2023-02-16T04:53:20.168Z,25.92
2023-02-16T04:54:22.392Z,27.27
2023-02-16T04:55:25.513Z,25.00
2023-02-16T04:56:28.189Z,24.83
2023-02-16T04:57:30.451Z,27.20
2023-02-16T04:58:32.777Z,30.50
2023-02-16T04:59:35.224Z,31.63
2023-02-16T05:00:37.489Z,28.35
2023-02-16T05:01:39.944Z,27.67
2023-02-16T05:02:42.237Z,32.40
2023-02-16T05:03:44.461Z,26.23
2023-02-16T05:04:46.768Z,26.20
2023-02-16T05:05:49.294Z,28.58
2023-02-16T05:06:51.656Z,30.48
2023-02-16T05:07:53.887Z,30.02
2023-02-16T05:08:56.083Z,26.45
2023-02-16T05:09:58.257Z,27.30
2023-02-16T05:11:18.610Z,25.45
2023-02-16T05:12:39.338Z,27.70
2023-02-16T05:13:59.967Z,24.55
2023-02-16T05:15:02.280Z,23.70
2023-02-16T05:16:04.879Z,24.60
2023-02-16T05:17:21.343Z,26.55
2023-02-16T05:18:23.591Z,26.00
2023-02-16T05:19:25.798Z,26.60
2023-02-16T05:20:48.010Z,27.02
2023-02-16T05:21:50.209Z,26.17
2023-02-16T05:22:52.459Z,27.17
2023-02-16T05:23:54.752Z,28.25
2023-02-16T05:24:56.957Z,26.27
2023-02-16T05:25:59.107Z,28.48
2023-02-16T05:27:05.711Z,26.58
2023-02-16T05:28:07.932Z,25.92
2023-02-16T05:29:10.158Z,26.70
2023-02-16T05:30:13.292Z,25.25
2023-02-16T05:31:15.730Z,26.95
2023-02-16T05:32:18.624Z,29.70
2023-02-16T05:33:20.841Z,26.65
2023-02-16T05:34:23.177Z,26.98
2023-02-16T05:35:25.421Z,26.38
2023-02-16T05:36:27.692Z,25.88
2023-02-16T05:37:29.948Z,28.45
2023-02-16T05:38:32.128Z,24.63
2023-02-16T05:39:34.440Z,26.63
2023-02-16T05:40:36.672Z,24.88
2023-02-16T05:41:38.894Z,25.70
2023-02-16T05:42:41.083Z,28.35
2023-02-16T05:43:43.308Z,27.63
2023-02-16T05:44:45.574Z,28.27
2023-02-16T05:45:47.786Z,31.38
2023-02-16T05:46:50.095Z,28.80
2023-02-16T05:47:53.131Z,31.15
2023-02-16T05:48:55.392Z,30.95
2023-02-16T05:49:57.731Z,29.48
2023-02-16T05:50:59.927Z,28.95
2023-02-16T05:52:02.305Z,26.60
2023-02-16T05:53:04.540Z,26.27
2023-02-16T05:54:07.091Z,25.98
2023-02-16T05:55:09.493Z,26.40
2023-02-16T05:56:12.087Z,26.23
2023-02-16T05:57:14.345Z,26.58
2023-02-16T05:58:16.586Z,26.83
2023-02-16T05:59:20.278Z,26.33
2023-02-16T06:00:22.599Z,26.27
2023-02-16T06:01:24.866Z,28.48
2023-02-16T06:02:27.220Z,34.58
2023-02-16T06:03:29.833Z,34.60
2023-02-16T06:04:32.751Z,31.00
2023-02-16T06:05:35.663Z,29.80
2023-02-16T06:06:38.864Z,31.02
2023-02-16T06:07:41.123Z,32.63
2023-02-16T06:08:43.936Z,33.70
2023-02-16T06:09:47.296Z,35.00
2023-02-16T06:10:50.566Z,38.05
2023-02-16T06:11:52.762Z,37.92
2023-02-16T06:12:54.958Z,39.60
2023-02-16T06:13:59.255Z,40.17
2023-02-16T06:15:01.893Z,40.70
2023-02-16T06:16:04.481Z,55.40
2023-02-16T06:17:06.685Z,61.63
2023-02-16T06:18:11.188Z,69.13
2023-02-16T06:19:14.744Z,71.82
2023-02-16T06:20:16.985Z,71.97
2023-02-16T06:21:19.258Z,72.70
2023-02-16T06:22:21.431Z,67.32
2023-02-16T06:23:23.871Z,68.40
2023-02-16T06:24:26.192Z,58.17
2023-02-16T06:25:28.402Z,60.65
2023-02-16T06:26:31.128Z,56.88
2023-02-16T06:27:33.314Z,54.42
2023-02-16T06:28:35.468Z,48.83
2023-02-16T06:29:37.697Z,42.30
2023-02-16T06:30:40.037Z,41.83
2023-02-16T06:31:42.381Z,45.55
2023-02-16T06:32:44.877Z,40.72
2023-02-16T06:33:47.743Z,45.95
2023-02-16T06:34:49.942Z,43.40
2023-02-16T06:35:52.134Z,44.53
2023-02-16T06:36:54.381Z,41.42
2023-02-16T06:37:56.587Z,39.83
2023-02-16T06:38:58.806Z,37.88
2023-02-16T06:40:01.215Z,39.75
2023-02-16T06:41:04.041Z,39.38
2023-02-16T06:42:06.539Z,36.60
2023-02-16T06:43:08.768Z,40.13
2023-02-16T06:44:15.765Z,36.88
2023-02-16T06:45:18.019Z,37.33
2023-02-16T06:46:20.367Z,38.47
2023-02-16T06:47:22.563Z,39.13
2023-02-16T06:48:24.838Z,42.75
2023-02-16T06:49:27.918Z,46.58
2023-02-16T06:50:30.423Z,43.90
2023-02-16T06:51:33.031Z,40.60
2023-02-16T06:52:35.945Z,38.00
2023-02-16T06:53:38.127Z,42.05
2023-02-16T06:54:40.434Z,39.28
2023-02-16T06:55:42.720Z,38.72
2023-02-16T06:56:45.201Z,41.70
2023-02-16T06:57:47.500Z,37.33
2023-02-16T06:58:50.412Z,39.65
2023-02-16T06:59:52.734Z,37.33
2023-02-16T07:00:55.358Z,37.83
2023-02-16T07:01:57.591Z,38.85
2023-02-16T07:03:01.081Z,34.05
2023-02-16T07:04:03.466Z,35.97
2023-02-16T07:05:05.821Z,34.72
2023-02-16T07:06:08.110Z,31.95
2023-02-16T07:07:10.311Z,32.55
2023-02-16T07:08:12.672Z,33.70
2023-02-16T07:09:15.074Z,31.77
2023-02-16T07:10:17.475Z,31.55
2023-02-16T07:11:20.673Z,32.47
2023-02-16T07:12:22.908Z,32.92
2023-02-16T07:13:25.218Z,31.92
2023-02-16T07:14:27.535Z,33.28
2023-02-16T07:15:29.813Z,32.10
2023-02-16T07:16:32.189Z,31.10
2023-02-16T07:17:34.455Z,32.97
2023-02-16T07:18:36.751Z,33.35
2023-02-16T07:19:39.028Z,33.88
2023-02-16T07:20:41.745Z,37.63
2023-02-16T07:21:44.104Z,36.67
2023-02-16T07:22:46.325Z,41.28
2023-02-16T07:23:49.294Z,39.13
2023-02-16T07:24:51.593Z,41.53
2023-02-16T07:25:53.872Z,38.97
2023-02-16T07:26:56.300Z,38.83
2023-02-16T07:27:59.011Z,38.58
2023-02-16T07:29:01.250Z,37.95
2023-02-16T07:30:03.954Z,38.38
2023-02-16T07:31:11.437Z,37.50
2023-02-16T07:32:13.901Z,38.10
2023-02-16T07:33:16.430Z,39.30
2023-02-16T07:34:20.832Z,39.80
2023-02-16T07:35:23.341Z,38.90
2023-02-16T07:36:25.646Z,38.47
2023-02-16T07:37:27.871Z,38.28
2023-02-16T07:38:30.814Z,37.67
2023-02-16T07:39:33.008Z,37.13
2023-02-16T07:40:35.381Z,39.30
2023-02-16T07:41:37.608Z,39.65
2023-02-16T07:42:43.273Z,38.30
2023-02-16T07:43:45.479Z,40.72
2023-02-16T07:44:47.876Z,42.63
2023-02-16T07:45:50.293Z,41.33
2023-02-16T07:46:52.651Z,42.70
2023-02-16T07:47:54.878Z,41.00
2023-02-16T07:48:57.097Z,38.47
2023-02-16T07:49:59.305Z,40.55
2023-02-16T07:51:01.806Z,40.38
2023-02-16T07:52:04.225Z,40.47
2023-02-16T07:53:06.440Z,37.15
2023-02-16T07:54:08.762Z,35.47
2023-02-16T07:55:11.741Z,38.97
2023-02-16T07:56:28.652Z,35.88
2023-02-16T07:57:30.914Z,37.05
2023-02-16T07:58:33.144Z,35.83
2023-02-16T07:59:35.449Z,34.70
2023-02-16T08:00:37.753Z,34.67
2023-02-16T08:01:41.202Z,33.00
2023-02-16T08:02:43.493Z,34.00
2023-02-16T08:03:45.760Z,35.00
2023-02-16T08:04:48.558Z,34.55
2023-02-16T08:05:50.839Z,32.30
2023-02-16T08:06:53.025Z,33.80
2023-02-16T08:07:55.311Z,33.78
2023-02-16T08:08:57.571Z,34.30
2023-02-16T08:10:00.976Z,34.42
2023-02-16T08:11:10.234Z,34.05
2023-02-16T08:12:14.504Z,32.15
2023-02-16T08:13:16.677Z,29.30
2023-02-16T08:14:18.875Z,29.58
2023-02-16T08:15:21.122Z,31.23
2023-02-16T08:16:25.566Z,28.10
2023-02-16T08:17:27.834Z,30.52
2023-02-16T08:18:30.546Z,30.10
2023-02-16T08:19:33.156Z,30.00
2023-02-16T08:20:57.317Z,30.52
2023-02-16T08:21:58.774Z,27.95
2023-02-16T08:23:00.989Z,27.23
2023-02-16T08:24:06.101Z,27.00
2023-02-16T08:25:08.581Z,25.98
2023-02-16T08:26:11.154Z,26.45
2023-02-16T08:27:13.480Z,26.40
2023-02-16T08:28:15.674Z,28.38
2023-02-16T08:29:18.035Z,27.02
2023-02-16T08:30:20.642Z,25.67
2023-02-16T08:31:25.794Z,26.63
2023-02-16T08:32:28.270Z,27.08
2023-02-16T08:33:31.190Z,26.92
2023-02-16T08:34:34.854Z,26.75
2023-02-16T08:35:38.487Z,26.02
2023-02-16T08:36:44.502Z,27.85
2023-02-16T08:37:47.187Z,25.70
2023-02-16T08:38:50.911Z,27.48
2023-02-16T08:39:53.730Z,26.45
2023-02-16T08:40:55.956Z,26.33
2023-02-16T08:41:59.878Z,27.20
2023-02-16T08:43:02.064Z,26.75
2023-02-16T08:44:06.295Z,25.25
2023-02-16T08:45:08.998Z,25.50
2023-02-16T08:46:11.681Z,25.10
2023-02-16T08:47:13.895Z,25.90
2023-02-16T08:48:16.576Z,25.10
2023-02-16T08:49:21.872Z,26.75
2023-02-16T08:50:24.174Z,25.42
2023-02-16T08:51:28.814Z,26.65
2023-02-16T08:52:30.949Z,25.23
2023-02-16T08:53:36.059Z,25.20
2023-02-16T08:54:39.700Z,25.85
2023-02-16T08:55:41.886Z,25.98
2023-02-16T08:56:46.989Z,26.35
2023-02-16T08:57:49.201Z,25.20
2023-02-16T08:58:51.389Z,25.42
2023-02-16T09:00:13.532Z,24.23
2023-02-16T09:01:15.823Z,26.27
2023-02-16T09:02:18.097Z,26.63
2023-02-16T09:03:20.705Z,26.08
2023-02-16T09:04:24.473Z,22.63
2023-02-16T09:05:28.171Z,23.10
2023-02-16T09:06:30.463Z,21.88
2023-02-16T09:07:35.958Z,23.20
2023-02-16T09:08:38.901Z,22.65
2023-02-16T09:09:42.781Z,22.77
2023-02-16T09:10:45.476Z,22.45
2023-02-16T09:11:48.431Z,23.63
2023-02-16T09:12:50.740Z,22.88
2023-02-16T09:13:53.182Z,22.23
2023-02-16T09:14:55.573Z,24.73
2023-02-16T09:16:06.220Z,22.75
2023-02-16T09:17:08.788Z,21.38
2023-02-16T09:18:15.056Z,21.60
2023-02-16T09:19:20.323Z,21.85
2023-02-16T09:20:23.570Z,21.98
2023-02-16T09:21:25.914Z,21.00
2023-02-16T09:22:28.110Z,20.90
2023-02-16T09:23:30.719Z,21.55
2023-02-16T09:24:32.861Z,21.98
2023-02-16T09:25:37.208Z,21.92
2023-02-16T09:26:42.625Z,21.30
2023-02-16T09:27:45.617Z,21.10
2023-02-16T09:28:48.900Z,22.55
2023-02-16T09:29:51.276Z,21.45
2023-02-16T09:30:54.235Z,20.80
2023-02-16T09:31:56.655Z,21.77
2023-02-16T09:33:00.038Z,21.55
2023-02-16T09:34:03.975Z,22.60
2023-02-16T09:35:06.580Z,22.13
2023-02-16T09:36:10.968Z,19.98
2023-02-16T09:37:14.616Z,20.55
2023-02-16T09:38:17.672Z,20.88
2023-02-16T09:39:19.937Z,19.27
2023-02-16T09:40:22.495Z,20.48
2023-02-16T09:42:06.273Z,19.00
2023-02-16T09:43:40.105Z,18.80
2023-02-16T09:45:09.875Z,19.52
2023-02-16T09:46:15.780Z,19.20
2023-02-16T09:47:30.986Z,18.65
2023-02-16T09:48:42.471Z,18.30
2023-02-16T09:49:45.530Z,19.55
2023-02-16T09:50:54.897Z,19.40
2023-02-16T09:52:04.741Z,19.40
2023-02-16T09:53:19.812Z,18.10
2023-02-16T09:54:34.651Z,18.25
2023-02-16T09:55:54.502Z,18.10
2023-02-16T09:57:04.339Z,18.08
2023-02-16T09:58:19.339Z,19.13
2023-02-16T09:59:36.722Z,17.60
2023-02-16T10:00:55.199Z,19.10
2023-02-16T10:02:21.295Z,20.88
2023-02-16T10:03:49.960Z,22.42
2023-02-16T10:05:20.167Z,26.05
2023-02-16T10:07:03.912Z,26.17
2023-02-16T10:08:11.784Z,23.20
2023-02-16T10:09:17.083Z,23.33
2023-02-16T10:10:23.593Z,22.33
2023-02-16T10:11:49.502Z,21.80
2023-02-16T10:12:58.082Z,21.30
2023-02-16T10:14:08.017Z,20.67
2023-02-16T10:15:18.108Z,20.17
2023-02-16T10:16:28.316Z,19.80
2023-02-16T10:17:36.142Z,21.15
2023-02-16T10:18:42.983Z,20.88
2023-02-16T10:20:12.090Z,19.40
2023-02-16T10:21:19.867Z,20.33
2023-02-16T10:22:36.774Z,20.80
2023-02-16T10:24:06.019Z,21.23
2023-02-16T10:25:13.963Z,20.60
2023-02-16T10:26:22.782Z,21.42
2023-02-16T10:27:33.133Z,22.23
2023-02-16T10:28:48.150Z,21.15
2023-02-16T10:29:50.320Z,21.40
2023-02-16T10:31:01.506Z,22.45
2023-02-16T10:32:26.881Z,23.02
2023-02-16T10:33:34.896Z,22.23
2023-02-16T10:34:43.458Z,21.27
2023-02-16T10:35:48.443Z,21.40
2023-02-16T10:36:59.926Z,22.05
2023-02-16T10:38:09.307Z,21.60
2023-02-16T10:39:24.799Z,20.35
2023-02-16T10:40:48.572Z,19.90
2023-02-16T10:42:18.223Z,21.30
2023-02-16T10:43:32.428Z,20.55
2023-02-16T10:44:40.214Z,20.60
2023-02-16T10:45:52.389Z,20.30
2023-02-16T10:47:59.167Z,25.35
2023-02-16T10:49:02.031Z,21.88
2023-02-16T10:50:07.139Z,22.52
2023-02-16T10:51:14.497Z,21.75
2023-02-16T10:52:17.207Z,22.42
2023-02-16T10:53:35.171Z,21.42
2023-02-16T10:54:37.419Z,21.83
2023-02-16T10:55:39.649Z,20.67
2023-02-16T10:57:07.971Z,21.00
2023-02-16T10:58:26.439Z,20.75
2023-02-16T10:59:39.433Z,19.30
2023-02-16T11:01:09.945Z,20.58
2023-02-16T11:02:19.963Z,20.25
2023-02-16T11:03:31.746Z,20.65
2023-02-16T11:04:42.950Z,19.77
2023-02-16T11:05:45.204Z,20.00
2023-02-16T11:07:03.310Z,18.02
2023-02-16T11:08:07.607Z,18.08
2023-02-16T11:09:15.376Z,17.55
2023-02-16T11:10:23.203Z,16.30
2023-02-16T11:11:27.557Z,15.40
2023-02-16T11:12:39.361Z,16.00
2023-02-16T11:13:41.936Z,14.40
2023-02-16T11:15:00.187Z,13.98
2023-02-16T11:16:12.085Z,12.80
2023-02-16T11:17:16.572Z,13.40
2023-02-16T11:18:40.154Z,13.90
2023-02-16T11:20:24.565Z,14.13
2023-02-16T11:22:02.404Z,12.32
2023-02-16T11:23:17.439Z,12.77
2023-02-16T11:24:34.399Z,11.95
2023-02-16T11:25:36.583Z,11.93
2023-02-16T11:26:39.473Z,11.35
2023-02-16T11:27:51.722Z,11.27
2023-02-16T11:29:06.938Z,11.38
2023-02-16T11:30:22.487Z,10.93
2023-02-16T11:31:37.597Z,11.32
2023-02-16T11:32:39.996Z,11.50
2023-02-16T11:33:43.913Z,9.98
2023-02-16T11:34:53.411Z,9.90
2023-02-16T11:35:56.664Z,10.00
2023-02-16T11:37:31.983Z,10.82
2023-02-16T11:38:36.348Z,9.10
2023-02-16T11:39:41.177Z,9.27
2023-02-16T11:40:52.787Z,9.02
2023-02-16T11:42:01.163Z,9.23
2023-02-16T11:43:03.538Z,8.52
2023-02-16T11:44:24.071Z,9.10
2023-02-16T11:45:34.715Z,8.60
2023-02-16T11:46:40.826Z,9.73
2023-02-16T11:47:43.184Z,9.43
2023-02-16T11:48:46.504Z,9.82
2023-02-16T11:49:51.857Z,9.50
2023-02-16T11:50:59.089Z,9.70
2023-02-16T11:52:17.398Z,8.88
2023-02-16T11:53:29.604Z,9.10
2023-02-16T11:54:31.998Z,8.52
2023-02-16T11:55:34.308Z,8.77
2023-02-16T11:56:36.788Z,9.68
2023-02-16T11:57:39.029Z,8.93
2023-02-16T11:58:41.536Z,8.48
2023-02-16T11:59:44.787Z,8.95
2023-02-16T12:01:12.607Z,8.65
2023-02-16T12:03:02.592Z,8.50
2023-02-16T12:04:28.718Z,8.73
2023-02-16T12:06:06.876Z,8.82
2023-02-16T12:07:34.026Z,8.85
2023-02-16T12:08:45.221Z,9.18
2023-02-16T12:10:03.717Z,8.10
2023-02-16T12:11:30.518Z,8.30
2023-02-16T12:12:41.954Z,8.25
2023-02-16T12:14:09.120Z,8.55
2023-02-16T12:15:32.221Z,7.32
2023-02-16T12:16:52.295Z,8.32
2023-02-16T12:18:32.098Z,8.07
2023-02-16T12:19:43.215Z,8.15
2023-02-16T12:21:05.173Z,8.85
2023-02-16T12:22:33.078Z,7.93
2023-02-16T12:23:51.241Z,7.50
2023-02-16T12:25:15.120Z,7.95
2023-02-16T12:26:41.454Z,8.18
2023-02-16T12:27:54.429Z,7.50
2023-02-16T12:29:08.815Z,7.93
2023-02-16T12:30:11.467Z,7.47
2023-02-16T12:31:34.262Z,8.10
2023-02-16T12:32:57.713Z,7.65
2023-02-16T12:34:21.580Z,7.60
2023-02-16T12:35:32.734Z,8.00
2023-02-16T12:36:53.145Z,7.63
2023-02-16T12:38:04.299Z,7.28
2023-02-16T12:39:19.118Z,7.28
2023-02-16T12:40:49.268Z,7.05
2023-02-16T12:42:02.249Z,7.22
2023-02-16T12:43:13.065Z,6.82
2023-02-16T12:44:28.829Z,6.75
2023-02-16T12:45:36.548Z,7.28
2023-02-16T12:46:51.919Z,6.97
2023-02-16T12:48:33.863Z,7.05
2023-02-16T12:49:48.485Z,6.93
2023-02-16T12:50:52.638Z,6.97
2023-02-16T12:52:09.983Z,7.32
2023-02-16T12:53:22.482Z,6.90
2023-02-16T12:54:30.375Z,5.82
2023-02-16T12:55:44.317Z,6.70
2023-02-16T12:56:52.556Z,6.43
2023-02-16T12:58:01.750Z,6.75
2023-02-16T12:59:17.998Z,6.53
2023-02-16T13:00:23.964Z,6.57
2023-02-16T13:01:30.952Z,9.38
2023-02-16T13:02:43.017Z,7.28
2023-02-16T13:04:05.006Z,7.15
2023-02-16T13:05:23.528Z,7.40
2023-02-16T13:06:37.433Z,6.78
2023-02-16T13:07:46.996Z,6.72
2023-02-16T13:09:00.631Z,6.60
2023-02-16T13:10:33.437Z,6.80
2023-02-16T13:11:46.288Z,6.18
2023-02-16T13:13:02.536Z,6.30
2023-02-16T13:14:14.695Z,5.90
2023-02-16T13:15:20.538Z,6.20
2023-02-16T13:16:39.594Z,5.82
2023-02-16T13:17:49.098Z,5.28
2023-02-16T13:18:56.099Z,4.88
2023-02-16T13:19:58.342Z,5.10
2023-02-16T13:21:16.310Z,4.28
2023-02-16T13:22:44.332Z,5.18
2023-02-16T13:24:05.248Z,4.75
2023-02-16T13:25:07.868Z,4.57
2023-02-16T13:26:17.860Z,4.40
2023-02-16T13:27:48.897Z,5.05
2023-02-16T13:29:29.013Z,4.75
2023-02-16T13:31:05.108Z,4.20
2023-02-16T13:32:34.687Z,4.32
2023-02-16T13:33:45.622Z,4.57
2023-02-16T13:34:53.596Z,4.50
2023-02-16T13:36:10.730Z,4.60
2023-02-16T13:37:18.990Z,4.85
2023-02-16T13:38:32.134Z,4.13
2023-02-16T13:40:02.326Z,4.22
2023-02-16T13:41:31.505Z,5.00
2023-02-16T13:42:57.884Z,5.07
2023-02-16T13:44:10.850Z,5.22
2023-02-16T13:45:20.860Z,4.57
2023-02-16T13:46:30.501Z,5.40
2023-02-16T13:47:39.302Z,5.15
2023-02-16T13:48:48.460Z,5.65
2023-02-16T13:50:00.307Z,5.20
2023-02-16T13:51:06.823Z,5.68
2023-02-16T13:52:31.021Z,5.63
2023-02-16T13:53:38.627Z,5.80
2023-02-16T13:54:45.436Z,5.85
2023-02-16T13:55:50.649Z,6.40
2023-02-16T13:56:53.193Z,5.90
2023-02-16T13:58:04.364Z,6.18
2023-02-16T13:59:18.632Z,6.45
2023-02-16T14:00:42.085Z,6.38
2023-02-16T14:01:46.953Z,6.28
2023-02-16T14:02:56.179Z,6.72
2023-02-16T14:04:03.161Z,6.90
2023-02-16T14:05:10.678Z,6.72
2023-02-16T14:06:32.479Z,6.90
2023-02-16T14:07:37.967Z,6.78
2023-02-16T14:08:41.360Z,6.72
2023-02-16T14:09:47.814Z,6.93
2023-02-16T14:10:55.898Z,6.30
2023-02-16T14:11:59.442Z,6.65
2023-02-16T14:13:11.897Z,6.40
2023-02-16T14:15:34.854Z,6.47
2023-02-16T14:16:37.144Z,8.10
2023-02-16T14:17:39.351Z,7.40
2023-02-16T14:18:41.496Z,7.20
2023-02-16T14:20:11.670Z,8.02
2023-02-16T14:21:37.367Z,7.38
2023-02-16T14:22:57.324Z,7.00
2023-02-16T14:24:03.017Z,7.47
2023-02-16T14:25:22.730Z,7.68
2023-02-16T14:26:26.127Z,7.78
2023-02-16T14:27:47.741Z,7.28
2023-02-16T14:29:02.521Z,7.32
2023-02-16T14:30:17.193Z,7.55
2023-02-16T14:31:22.833Z,6.97
2023-02-16T14:32:33.804Z,7.32
2023-02-16T14:34:37.653Z,6.85
2023-02-16T14:36:00.161Z,6.50
2023-02-16T14:37:15.226Z,7.00
2023-02-16T14:38:58.384Z,6.88
2023-02-16T14:40:14.513Z,6.35
2023-02-16T14:41:31.939Z,7.40
2023-02-16T14:42:35.573Z,6.90
2023-02-16T14:43:46.412Z,7.43
2023-02-16T14:45:14.957Z,7.18
2023-02-16T14:46:52.003Z,7.05
2023-02-16T14:48:06.101Z,7.88
2023-02-16T14:49:40.565Z,7.40
2023-02-16T14:51:21.534Z,7.50
2023-02-16T14:53:05.515Z,6.63
2023-02-16T14:55:42.225Z,6.70
2023-02-16T14:56:50.716Z,7.00
2023-02-16T14:57:58.418Z,6.57
2023-02-16T14:59:05.588Z,6.40
2023-02-16T15:00:15.045Z,6.28